Time;durP1;ratioP1;P1;durP2;ratioP2;P2;SDS_P1;SDS_P2;PMS_P1;PMS_P2;Temp;Humidity;BMP_temperature;BMP_pressure;BME280_temperature;BME280_humidity;BME280_pressure;Samples;Min_cycle;Max_cycle;Signal;HPM_P1;HPM_P2
2023/01/28 00:00:57;;;;;;;5.65;4.18;;;;;;;3.16;47.30;102408.13;5074357;28;20475;-78
2023/01/28 00:03:25;;;;;;;6.05;4.57;;;;;;;3.14;47.48;102408.19;5083010;28;20027;-78
2023/01/28 00:06:02;;;;;;;5.40;4.20;;;;;;;3.16;46.73;102402.72;5062567;28;20045;-78
2023/01/28 00:08:30;;;;;;;5.70;4.35;;;;;;;3.11;47.41;102401.97;5079722;28;20064;-78
2023/01/28 00:10:59;;;;;;;5.68;4.28;;;;;;;3.14;47.54;102400.06;5068802;28;20075;-78
2023/01/28 00:13:27;;;;;;;5.97;4.28;;;;;;;3.10;47.61;102392.09;5043526;28;20159;-78
2023/01/28 00:15:57;;;;;;;6.03;4.38;;;;;;;3.12;47.73;102403.75;5058742;28;20045;-78
2023/01/28 00:18:25;;;;;;;6.13;4.38;;;;;;;3.11;47.78;102402.88;5067169;28;20319;-78
2023/01/28 00:20:58;;;;;;;6.78;5.10;;;;;;;3.09;47.08;102393.91;5056110;28;20049;-78
2023/01/28 00:23:28;;;;;;;7.28;5.28;;;;;;;3.07;47.54;102394.91;5071096;28;20037;-78
2023/01/28 00:25:58;;;;;;;5.63;4.78;;;;;;;3.10;47.45;102392.97;5048066;28;20033;-78
2023/01/28 00:28:26;;;;;;;6.70;5.20;;;;;;;3.10;47.61;102381.28;5054916;28;20045;-78
2023/01/28 00:30:54;;;;;;;6.47;4.43;;;;;;;3.11;47.60;102378.53;5073418;28;20502;-78
2023/01/28 00:33:22;;;;;;;7.63;5.55;;;;;;;3.11;47.77;102378.53;5043507;28;20052;-78
2023/01/28 00:35:59;;;;;;;8.02;6.15;;;;;;;3.11;47.01;102381.22;5053995;28;20617;-78
2023/01/28 00:38:27;;;;;;;7.50;5.78;;;;;;;3.07;47.66;102371.44;5059003;28;20033;-78
2023/01/28 00:40:55;;;;;;;7.75;6.43;;;;;;;3.06;47.51;102380.50;5053594;28;20032;-78
2023/01/28 00:43:23;;;;;;;8.57;6.28;;;;;;;3.05;47.59;102389.56;5054928;28;20107;-78
2023/01/28 00:45:51;;;;;;;8.50;5.97;;;;;;;3.05;47.36;102381.44;5049581;28;20036;-78
2023/01/28 00:48:20;;;;;;;8.10;6.20;;;;;;;3.03;47.44;102388.69;5064380;28;20534;-76
2023/01/28 00:50:48;;;;;;;7.30;5.72;;;;;;;3.02;47.61;102386.94;5056899;28;20049;-78
2023/01/28 00:53:17;;;;;;;7.80;5.63;;;;;;;3.06;47.44;102387.72;5033220;28;20049;-77
2023/01/28 00:55:45;;;;;;;7.35;5.95;;;;;;;3.03;47.59;102392.28;5038953;28;21943;-77
2023/01/28 00:58:15;;;;;;;7.95;5.38;;;;;;;3.06;47.40;102388.63;5061059;28;20040;-77
2023/01/28 01:00:43;;;;;;;7.45;5.78;;;;;;;3.03;47.54;102384.19;5048318;28;20053;-76
2023/01/28 01:03:11;;;;;;;7.43;5.88;;;;;;;3.05;47.44;102386.84;5041052;28;20070;-77
2023/01/28 01:05:39;;;;;;;6.78;5.15;;;;;;;3.06;47.33;102387.72;5042339;28;20050;-77
2023/01/28 01:08:08;;;;;;;8.52;5.63;;;;;;;3.03;47.38;102399.53;5050752;28;20123;-77
2023/01/28 01:10:39;;;;;;;7.07;5.18;;;;;;;3.05;47.08;102402.19;5048521;28;20566;-77
2023/01/28 01:13:09;;;;;;;7.13;5.00;;;;;;;3.03;47.10;102400.41;5060035;28;20487;-77
2023/01/28 01:15:36;;;;;;;7.65;5.45;;;;;;;3.02;47.35;102398.63;5049024;28;20036;-77
2023/01/28 01:18:05;;;;;;;8.63;5.30;;;;;;;3.00;47.54;102402.31;5068875;28;20487;-77
2023/01/28 01:20:38;;;;;;;7.75;5.75;;;;;;;3.00;47.16;102395.09;5053379;28;20053;-77
2023/01/28 01:23:06;;;;;;;7.45;5.78;;;;;;;2.94;47.03;102398.00;5042189;28;20044;-77
2023/01/28 01:25:34;;;;;;;7.78;5.85;;;;;;;2.86;47.11;102385.66;5064674;28;20043;-77
2023/01/28 01:28:03;;;;;;;8.45;5.75;;;;;;;2.88;46.80;102392.78;5070286;28;20051;-77
2023/01/28 01:30:31;;;;;;;6.63;5.57;;;;;;;2.84;46.88;102395.63;5071985;28;20465;-77
2023/01/28 01:32:59;;;;;;;7.00;5.40;;;;;;;2.78;46.66;102393.09;5051300;28;20045;-77
2023/01/28 01:35:27;;;;;;;6.50;4.93;;;;;;;2.78;46.67;102390.41;5067112;28;20449;-77
2023/01/28 01:37:55;;;;;;;6.47;4.82;;;;;;;2.70;46.67;102382.53;5041251;28;20083;-76
2023/01/28 01:40:23;;;;;;;7.85;5.30;;;;;;;2.68;47.13;102384.38;5054087;28;20037;-77
2023/01/28 01:42:51;;;;;;;6.22;4.65;;;;;;;2.69;46.82;102383.47;5050692;28;20041;-77
2023/01/28 01:45:20;;;;;;;6.40;4.70;;;;;;;2.69;46.71;102382.56;5057570;28;20166;-77
2023/01/28 01:47:52;;;;;;;5.20;4.28;;;;;;;2.67;46.76;102385.31;5045209;28;20051;-77
2023/01/28 01:50:30;;;;;;;5.90;4.60;;;;;;;2.68;46.50;102394.31;5047959;28;20052;-77
2023/01/28 01:53:03;;;;;;;7.32;4.82;;;;;;;2.64;46.43;102393.53;5045006;28;20496;-77
2023/01/28 01:55:34;;;;;;;6.80;4.40;;;;;;;2.62;46.83;102396.28;5040968;28;20045;-77
2023/01/28 01:58:09;;;;;;;5.95;4.22;;;;;;;2.65;46.77;102398.00;5043445;28;20564;-77
2023/01/28 02:00:40;;;;;;;6.93;4.05;;;;;;;2.64;46.72;102398.94;5043664;28;20067;-77
2023/01/28 02:03:09;;;;;;;6.25;3.80;;;;;;;2.66;46.86;102393.50;5058452;28;20432;-77
2023/01/28 02:05:39;;;;;;;5.93;4.38;;;;;;;2.66;46.92;102407.88;5048278;28;20040;-77
2023/01/28 02:08:20;;;;;;;6.10;3.88;;;;;;;2.66;47.00;102405.16;5043923;28;20040;-77
2023/01/28 02:10:52;;;;;;;6.43;4.13;;;;;;;2.64;46.74;102410.66;5039795;28;20096;-77
2023/01/28 02:13:24;;;;;;;5.70;4.00;;;;;;;2.67;46.88;102404.25;5028100;28;20045;-77
2023/01/28 02:15:54;;;;;;;5.95;4.28;;;;;;;2.69;46.92;102406.91;5070999;28;20089;-77
2023/01/28 02:18:23;;;;;;;5.93;3.80;;;;;;;2.68;47.17;102408.72;5051975;28;20508;-77
2023/01/28 02:21:30;;;;;;;6.15;4.40;;;;;;;2.68;46.03;102410.53;5028656;28;20122;-77
2023/01/28 02:24:19;;;;;;;6.32;4.00;;;;;;;2.68;46.04;102407.81;5029670;28;20081;-77
2023/01/28 02:27:02;;;;;;;5.47;4.32;;;;;;;2.67;46.11;102412.34;5043575;28;20091;-77
2023/01/28 02:29:37;;;;;;;6.35;4.35;;;;;;;2.66;46.42;102417.81;5047081;28;20135;-77
2023/01/28 02:32:10;;;;;;;6.50;4.05;;;;;;;2.68;46.56;102413.22;5029552;28;20096;-77
2023/01/28 02:34:44;;;;;;;7.75;4.82;;;;;;;2.64;46.65;102423.28;5048840;28;20091;-77
2023/01/28 02:37:17;;;;;;;5.60;4.03;;;;;;;2.66;46.54;102424.09;5046060;28;20038;-77
2023/01/28 02:39:49;;;;;;;6.25;4.18;;;;;;;2.67;46.84;102419.56;5045654;28;20567;-77
2023/01/28 02:42:21;;;;;;;4.78;3.78;;;;;;;2.67;46.78;102422.28;5049226;28;20140;-77
2023/01/28 02:44:50;;;;;;;5.60;3.88;;;;;;;2.68;46.82;102430.34;5033988;28;20045;-77
2023/01/28 02:50:08;;;;;;;5.85;4.22;;;;;;;2.68;46.71;102430.34;5046775;28;20065;-76
2023/01/28 02:55:43;;;;;;;5.30;4.05;;;;;;;2.68;46.86;102427.63;5043682;28;20525;-77
2023/01/28 02:58:18;;;;;;;7.40;4.75;;;;;;;2.69;46.90;102432.13;5051620;28;20040;-77
2023/01/28 03:00:54;;;;;;;6.60;4.80;;;;;;;2.73;46.51;102432.94;5043428;28;20168;-77
2023/01/28 03:03:28;;;;;;;6.75;5.13;;;;;;;2.73;46.92;102433.81;5042731;28;20053;-77
2023/01/28 03:06:05;;;;;;;8.05;6.03;;;;;;;2.74;46.60;102438.25;5037320;28;20052;-77
2023/01/28 03:36:52;;;;;;;14.48;8.23;;;;;;;2.78;46.89;102439.97;5044097;28;20520;-76
2023/01/28 03:39:38;;;;;;;12.55;8.60;;;;;;;2.76;46.82;102433.69;5043762;28;20048;-77
2023/01/28 03:42:11;;;;;;;14.43;8.18;;;;;;;2.78;46.68;102429.13;5038617;28;20156;-77
2023/01/28 03:44:49;;;;;;;13.00;8.27;;;;;;;2.78;46.79;102428.25;5031618;28;20045;-77
2023/01/28 03:47:17;;;;;;;12.80;8.57;;;;;;;2.79;46.75;102440.84;5045393;28;20137;-77
2023/01/28 03:49:50;;;;;;;12.05;7.53;;;;;;;2.80;46.49;102429.09;5045124;28;20555;-77
2023/01/28 03:52:23;;;;;;;12.10;8.27;;;;;;;2.78;46.55;102436.38;5041362;28;20036;-77
2023/01/28 03:54:55;;;;;;;13.30;7.93;;;;;;;2.77;46.19;102442.69;5049428;28;20554;-76
2023/01/28 03:57:25;;;;;;;13.60;8.43;;;;;;;2.76;46.34;102441.81;5041978;28;20182;-77
2023/01/28 03:59:53;;;;;;;13.10;8.07;;;;;;;2.78;46.66;102444.47;5041841;28;20508;-77
2023/01/28 04:02:24;;;;;;;12.82;7.32;;;;;;;2.76;46.59;102447.22;5046713;28;20052;-76
2023/01/28 04:04:53;;;;;;;12.68;7.95;;;;;;;2.79;46.44;102454.38;5041469;28;20064;-77
2023/01/28 04:07:21;;;;;;;12.02;7.40;;;;;;;2.77;46.35;102446.28;5042177;28;20415;-77
2023/01/28 04:10:22;;;;;;;12.15;7.45;;;;;;;2.75;46.59;102437.34;5026814;28;20060;-77
2023/01/28 04:12:55;;;;;;;12.05;7.80;;;;;;;2.74;46.22;102437.41;5048419;28;20549;-76
2023/01/28 04:15:25;;;;;;;11.02;7.43;;;;;;;2.75;46.07;102439.16;5034996;28;20052;-77
2023/01/28 04:17:54;;;;;;;12.10;7.43;;;;;;;2.73;46.24;102447.34;5049817;28;20112;-77
2023/01/28 04:20:29;;;;;;;10.50;6.85;;;;;;;2.73;46.15;102449.16;5044302;28;20045;-77
2023/01/28 04:22:59;;;;;;;11.68;7.32;;;;;;;2.70;46.26;102447.41;5040414;28;20037;-76
2023/01/28 04:25:28;;;;;;;10.75;7.00;;;;;;;2.71;46.07;102448.28;5046003;28;20133;-77
2023/01/28 04:27:57;;;;;;;11.90;7.45;;;;;;;2.70;46.04;102457.34;5064211;23;20044;-78
2023/01/28 04:30:28;;;;;;;11.95;7.70;;;;;;;2.69;45.97;102455.56;5056020;28;20064;-78
2023/01/28 04:33:07;;;;;;;10.10;7.32;;;;;;;2.68;46.02;102459.19;5046296;28;20072;-78
2023/01/28 04:35:47;;;;;;;11.05;7.85;;;;;;;2.66;45.79;102461.06;5073588;28;20072;-78
2023/01/28 04:38:24;;;;;;;12.02;7.88;;;;;;;2.64;45.90;102470.13;5057812;28;20742;-76
2023/01/28 04:41:12;;;;;;;10.30;6.82;;;;;;;2.63;46.03;102467.44;5037393;28;20049;-77
2023/01/28 04:43:40;;;;;;;10.90;7.47;;;;;;;2.63;45.99;102472.84;5060120;28;20041;-75
2023/01/28 04:46:37;;;;;;;11.38;7.40;;;;;;;2.60;45.99;102468.41;5008807;28;20520;-75
2023/01/28 04:49:21;;;;;;;9.85;6.97;;;;;;;2.59;46.07;102474.75;5045655;28;20514;-75
2023/01/28 04:51:53;;;;;;;11.48;7.05;;;;;;;2.61;45.83;102478.28;5050752;28;20169;-75
2023/01/28 04:54:45;;;;;;;10.00;7.25;;;;;;;2.55;45.82;102477.59;5047984;28;20439;-77
2023/01/28 04:57:14;;;;;;;11.07;7.07;;;;;;;2.56;45.80;102472.16;5054417;28;20040;-75
2023/01/28 04:59:42;;;;;;;12.07;7.70;;;;;;;2.55;45.52;102470.38;5052724;28;20052;-75
2023/01/28 05:02:10;;;;;;;11.50;7.30;;;;;;;2.54;45.78;102468.59;5070729;28;20416;-75
2023/01/28 05:04:39;;;;;;;11.38;7.38;;;;;;;2.54;45.84;102462.31;5048278;28;20132;-75
2023/01/28 05:07:09;;;;;;;11.52;7.20;;;;;;;2.55;45.80;102478.47;5054777;28;20072;-75
2023/01/28 05:09:37;;;;;;;10.95;7.25;;;;;;;2.53;45.91;102469.53;5061156;28;20036;-75
2023/01/28 05:12:06;;;;;;;9.38;6.65;;;;;;;2.54;46.03;102467.72;5071824;28;20036;-77
2023/01/28 05:14:36;;;;;;;9.65;6.47;;;;;;;2.53;45.74;102474.03;5052206;28;20438;-75
2023/01/28 05:17:06;;;;;;;11.45;7.35;;;;;;;2.54;46.00;102478.50;5056027;28;20037;-76
2023/01/28 05:19:35;;;;;;;10.00;6.57;;;;;;;2.53;45.70;102471.34;5057944;28;20502;-76
2023/01/28 05:22:04;;;;;;;11.15;7.80;;;;;;;2.52;45.71;102474.97;5054478;28;20101;-75
2023/01/28 05:24:41;;;;;;;12.10;7.38;;;;;;;2.52;45.28;102477.66;5069757;28;20521;-75
2023/01/28 05:27:10;;;;;;;10.30;7.10;;;;;;;2.50;45.46;102471.41;5057407;28;20098;-75
2023/01/28 05:29:37;;;;;;;10.93;7.22;;;;;;;2.50;45.37;102472.28;5044996;28;20150;-76
2023/01/28 05:32:06;;;;;;;10.48;7.15;;;;;;;2.49;45.32;102475.97;5049412;28;20079;-77
2023/01/28 05:34:33;;;;;;;12.13;6.70;;;;;;;2.48;45.46;102471.47;5048991;28;20124;-76
2023/01/28 05:37:07;;;;;;;9.38;6.50;;;;;;;2.47;45.43;102466.13;5047960;28;20365;-75
2023/01/28 05:39:37;;;;;;;11.43;7.00;;;;;;;2.49;45.52;102469.66;5053189;28;20467;-76
2023/01/28 05:42:07;;;;;;;11.02;6.90;;;;;;;2.46;45.16;102472.44;5049078;28;20123;-76
2023/01/28 05:44:39;;;;;;;9.63;6.82;;;;;;;2.46;45.46;102478.72;5046955;28;20110;-76
2023/01/28 05:47:22;;;;;;;10.98;7.10;;;;;;;2.45;45.33;102484.19;5051810;28;20052;-76
2023/01/28 05:49:55;;;;;;;10.18;7.07;;;;;;;2.46;45.64;102480.56;5044265;28;20060;-76
2023/01/28 05:52:43;;;;;;;10.20;6.25;;;;;;;2.47;45.62;102483.22;5063071;28;20506;-78
2023/01/28 05:55:23;;;;;;;9.40;6.55;;;;;;;2.49;45.77;102494.88;5045180;28;20063;-76
2023/01/28 05:57:52;;;;;;;8.82;6.03;;;;;;;2.52;45.73;102502.00;5044421;28;20083;-75
2023/01/28 06:00:23;;;;;;;9.07;6.25;;;;;;;2.51;45.75;102505.63;5041282;28;20095;-77
2023/01/28 06:02:51;;;;;;;10.55;6.53;;;;;;;2.53;45.67;102504.66;5047089;28;20040;-77
2023/01/28 06:05:20;;;;;;;11.25;6.78;;;;;;;2.54;45.64;102505.53;5044288;28;20231;-77
2023/01/28 06:07:48;;;;;;;10.63;6.68;;;;;;;2.54;45.56;102509.13;5046104;28;20041;-77
2023/01/28 06:10:17;;;;;;;9.85;6.53;;;;;;;2.57;45.57;102510.88;5060106;28;20037;-77
2023/01/28 06:12:45;;;;;;;10.02;6.25;;;;;;;2.57;45.55;102513.56;5052689;28;20041;-75
2023/01/28 06:15:33;;;;;;;10.10;7.03;;;;;;;2.53;45.27;102517.28;5060712;28;20059;-78
2023/01/28 06:18:23;;;;;;;10.00;6.65;;;;;;;2.53;45.39;102507.34;5064509;28;20063;-77
2023/01/28 06:20:51;;;;;;;9.90;6.38;;;;;;;2.55;45.38;102513.63;5044008;28;20169;-77
2023/01/28 06:23:19;;;;;;;10.45;6.80;;;;;;;2.54;45.22;102503.72;5067966;28;20044;-77
2023/01/28 06:25:47;;;;;;;11.05;7.57;;;;;;;2.53;45.16;102507.34;5064365;28;20037;-78
2023/01/28 06:28:16;;;;;;;10.98;7.07;;;;;;;2.53;44.97;102515.47;5060627;28;20050;-78
2023/01/28 06:30:48;;;;;;;11.48;7.85;;;;;;;2.50;43.92;102517.34;5070278;28;20037;-76
2023/01/28 06:33:16;;;;;;;11.05;7.53;;;;;;;2.42;44.64;102516.69;5044597;28;20102;-76
2023/01/28 06:35:43;;;;;;;10.57;7.75;;;;;;;2.42;44.37;102516.69;5052198;28;20070;-76
2023/01/28 06:38:12;;;;;;;9.70;7.05;;;;;;;2.40;44.39;102511.34;5069550;28;20032;-76
2023/01/28 06:40:40;;;;;;;10.27;7.47;;;;;;;2.32;44.01;102507.06;5056973;28;20502;-75
2023/01/28 06:43:08;;;;;;;10.90;7.50;;;;;;;2.33;44.20;102508.84;5066265;28;20142;-76
2023/01/28 06:45:35;;;;;;;10.60;7.50;;;;;;;2.30;44.10;102512.50;5068332;28;20049;-76
2023/01/28 06:48:05;;;;;;;9.23;6.85;;;;;;;2.29;43.90;102518.84;5048331;28;20113;-76
2023/01/28 06:50:35;;;;;;;10.00;7.55;;;;;;;2.19;44.05;102517.31;5055694;28;20430;-76
2023/01/28 06:53:03;;;;;;;10.23;7.07;;;;;;;2.19;44.25;102515.50;5051075;28;20056;-76
2023/01/28 06:55:31;;;;;;;11.75;7.55;;;;;;;2.20;44.16;102522.66;5065897;28;20064;-76
2023/01/28 06:57:58;;;;;;;11.90;7.45;;;;;;;2.19;44.27;102537.09;5069114;28;20051;-75
2023/01/28 07:00:26;;;;;;;9.60;7.00;;;;;;;2.18;44.37;102527.22;5066650;28;20102;-76
2023/01/28 07:02:56;;;;;;;11.23;7.80;;;;;;;2.19;44.10;102531.69;5069032;28;20044;-75
2023/01/28 07:05:26;;;;;;;9.27;6.82;;;;;;;2.19;44.21;102523.59;5061471;28;20048;-76
2023/01/28 07:07:54;;;;;;;9.27;6.80;;;;;;;2.19;44.40;102523.59;5039771;28;20048;-76
2023/01/28 07:10:21;;;;;;;9.73;7.00;;;;;;;2.19;44.52;102522.69;5067566;28;20052;-76
2023/01/28 07:12:49;;;;;;;10.82;7.65;;;;;;;2.20;44.39;102525.38;5050008;28;20502;-76
2023/01/28 07:15:17;;;;;;;9.30;7.03;;;;;;;2.21;44.19;102508.25;5046938;28;20179;-78
2023/01/28 07:17:45;;;;;;;9.73;7.28;;;;;;;2.21;44.28;102513.63;5047964;28;20051;-78
2023/01/28 07:20:14;;;;;;;11.40;7.95;;;;;;;2.20;43.89;102511.88;5066000;28;20048;-78
2023/01/28 07:22:45;;;;;;;10.70;7.60;;;;;;;2.18;43.73;102512.81;5070526;28;20036;-78
2023/01/28 07:25:14;;;;;;;10.52;7.60;;;;;;;2.15;43.41;102510.22;5071448;28;20052;-78
2023/01/28 07:27:47;;;;;;;10.23;7.93;;;;;;;2.13;42.69;102514.78;5050714;28;20407;-76
2023/01/28 07:30:16;;;;;;;10.60;7.60;;;;;;;2.11;43.51;102514.81;5059127;28;20048;-77
2023/01/28 07:32:44;;;;;;;9.65;8.02;;;;;;;2.08;43.75;102530.22;5053426;28;20101;-78
2023/01/28 07:35:13;;;;;;;11.00;7.95;;;;;;;2.09;43.66;102529.25;5065988;28;20055;-78
2023/01/28 07:37:40;;;;;;;9.65;7.10;;;;;;;2.08;43.69;102525.66;5067477;28;20044;-78
2023/01/28 07:40:11;;;;;;;9.70;7.13;;;;;;;2.08;43.56;102531.06;5071098;28;20055;-78
2023/01/28 07:42:39;;;;;;;11.73;8.15;;;;;;;2.04;43.74;102525.81;5050893;28;20053;-78
2023/01/28 07:45:10;;;;;;;11.60;8.35;;;;;;;2.03;43.47;102521.31;5051298;28;20521;-78
2023/01/28 07:47:38;;;;;;;9.82;7.75;;;;;;;2.04;43.64;102528.50;5040817;28;20071;-78
2023/01/28 07:50:06;;;;;;;10.35;7.20;;;;;;;2.01;43.45;102529.47;5070790;28;20048;-78
2023/01/28 07:52:42;;;;;;;11.20;7.53;;;;;;;2.03;43.71;102533.03;5065172;28;20041;-78
2023/01/28 07:55:14;;;;;;;10.05;7.57;;;;;;;2.02;43.15;102546.56;5044754;28;20055;-78
2023/01/28 07:57:49;;;;;;;9.48;6.53;;;;;;;2.03;42.29;102533.03;5067358;28;20289;-78
2023/01/28 08:00:18;;;;;;;9.25;7.35;;;;;;;2.00;43.49;102522.28;5061460;28;20127;-78
2023/01/28 08:02:47;;;;;;;10.73;8.75;;;;;;;1.95;43.18;102534.13;5053241;28;20038;-78
2023/01/28 08:05:17;;;;;;;11.43;7.68;;;;;;;1.97;43.21;102529.59;5064836;28;20095;-78
2023/01/28 08:07:47;;;;;;;11.82;8.07;;;;;;;1.95;43.53;102539.53;5067243;28;20090;-78
2023/01/28 08:10:17;;;;;;;10.30;7.40;;;;;;;1.96;43.34;102544.00;5053839;28;20071;-78
2023/01/28 08:12:53;;;;;;;8.63;6.57;;;;;;;1.98;43.02;102547.56;5061807;28;20045;-77
2023/01/28 08:15:21;;;;;;;9.35;6.07;;;;;;;1.95;43.58;102555.75;5051841;28;20041;-78
2023/01/28 08:17:49;;;;;;;9.27;6.85;;;;;;;1.97;43.90;102568.28;5056007;28;20047;-78
2023/01/28 08:20:17;;;;;;;9.38;6.80;;;;;;;2.00;43.89;102567.34;5047997;28;20506;-77
2023/01/28 08:22:45;;;;;;;9.50;7.10;;;;;;;2.00;44.08;102565.50;5052982;28;20041;-78
2023/01/28 08:25:13;;;;;;;10.90;7.18;;;;;;;2.03;43.79;102573.53;5067123;28;20087;-78
2023/01/28 08:27:42;;;;;;;12.38;8.38;;;;;;;2.00;43.13;102579.00;5065822;28;20045;-78
2023/01/28 08:30:11;;;;;;;11.45;8.18;;;;;;;2.03;43.59;102587.03;5049807;28;20041;-78
2023/01/28 08:32:40;;;;;;;11.18;7.50;;;;;;;2.04;43.57;102583.41;5050074;28;20380;-78
2023/01/28 08:35:08;;;;;;;10.70;7.65;;;;;;;2.06;43.84;102583.38;5062216;28;20549;-78
2023/01/28 08:37:36;;;;;;;11.38;7.80;;;;;;;2.06;43.83;102586.97;5050739;28;20037;-78
2023/01/28 08:40:05;;;;;;;11.00;7.43;;;;;;;2.09;43.89;102586.88;5059869;28;20056;-78
2023/01/28 08:42:32;;;;;;;11.05;7.65;;;;;;;2.09;43.85;102586.88;5067140;28;20037;-78
2023/01/28 08:45:02;;;;;;;11.90;7.80;;;;;;;2.13;43.67;102588.59;5063752;28;20049;-78
2023/01/28 08:47:30;;;;;;;11.93;8.10;;;;;;;2.12;43.27;102586.81;5054425;28;20131;-78
2023/01/28 08:49:58;;;;;;;10.95;7.53;;;;;;;2.14;43.24;102584.97;5051819;28;20052;-78
2023/01/28 08:52:25;;;;;;;12.55;8.35;;;;;;;2.12;43.14;102594.91;5066038;28;20040;-78
2023/01/28 08:54:53;;;;;;;10.63;7.90;;;;;;;2.13;43.20;102596.69;5046531;28;20045;-77
2023/01/28 08:57:21;;;;;;;12.68;8.45;;;;;;;2.11;43.25;102597.63;5063447;28;20045;-78
2023/01/28 08:59:49;;;;;;;13.18;8.80;;;;;;;2.10;43.10;102601.25;5068440;28;20048;-78
2023/01/28 09:02:18;;;;;;;12.02;8.82;;;;;;;2.05;42.70;102609.50;5069580;28;20094;-78
2023/01/28 09:04:59;;;;;;;12.50;9.10;;;;;;;2.04;42.66;102612.22;5044712;28;20071;-78
2023/01/28 09:07:27;;;;;;;11.88;8.65;;;;;;;2.02;42.61;102620.34;5066826;28;20029;-78
2023/01/28 09:09:55;;;;;;;11.05;7.93;;;;;;;2.02;42.85;102619.47;5046954;28;20772;-78
2023/01/28 09:12:22;;;;;;;10.98;8.43;;;;;;;1.96;42.72;102628.59;5049323;28;20556;-77
2023/01/28 09:14:51;;;;;;;11.38;8.35;;;;;;;1.98;42.77;102640.28;5058185;28;20131;-77
2023/01/28 09:17:20;;;;;;;12.60;8.70;;;;;;;1.98;42.48;102639.38;5041162;28;20045;-77
2023/01/28 09:19:48;;;;;;;10.68;8.25;;;;;;;1.96;42.76;102636.72;5048759;28;20055;-77
2023/01/28 09:22:17;;;;;;;10.77;7.97;;;;;;;1.94;42.41;102635.84;5039083;28;20585;-77
2023/01/28 09:24:45;;;;;;;11.18;8.35;;;;;;;1.92;42.25;102644.94;5049756;28;20512;-76
2023/01/28 09:27:13;;;;;;;11.18;7.95;;;;;;;1.93;42.74;102652.09;5043445;28;20440;-77
2023/01/28 09:29:40;;;;;;;11.85;8.75;;;;;;;1.91;42.54;102649.44;5068057;28;20052;-77
2023/01/28 09:32:08;;;;;;;11.02;8.50;;;;;;;1.90;42.79;102650.38;5062641;28;20087;-77
2023/01/28 09:34:38;;;;;;;11.40;7.90;;;;;;;1.92;42.82;102650.34;5061699;28;20041;-77
2023/01/28 09:37:06;;;;;;;11.18;8.35;;;;;;;1.93;42.93;102650.28;5048063;28;20045;-76
2023/01/28 09:39:33;;;;;;;11.38;7.80;;;;;;;1.94;43.27;102651.16;5047855;28;20087;-77
2023/01/28 09:42:19;;;;;;;10.77;7.75;;;;;;;2.00;42.55;102651.03;5063249;28;20032;-78
2023/01/28 09:44:59;;;;;;;12.05;7.65;;;;;;;2.00;43.00;102651.91;5058144;28;20576;-78
2023/01/28 09:47:32;;;;;;;11.85;8.38;;;;;;;2.04;43.31;102644.63;5062739;28;20091;-77
2023/01/28 09:50:06;;;;;;;10.23;7.47;;;;;;;2.04;43.18;102640.13;5065536;28;20484;-77
2023/01/28 09:52:37;;;;;;;12.00;7.55;;;;;;;2.09;43.52;102654.38;5064573;28;20044;-77
2023/01/28 09:55:07;;;;;;;9.68;7.05;;;;;;;2.13;43.64;102666.03;5071502;28;20139;-77
2023/01/28 09:57:41;;;;;;;10.65;7.80;;;;;;;2.15;42.82;102673.16;5071314;28;20055;-77
2023/01/28 10:00:15;;;;;;;9.93;7.13;;;;;;;2.19;42.68;102665.88;5061898;28;20045;-77
2023/01/28 10:02:59;;;;;;;9.23;7.15;;;;;;;2.20;42.50;102662.25;5065662;28;20044;-77
2023/01/28 10:05:36;;;;;;;11.13;8.40;;;;;;;2.19;42.17;102666.75;5066309;28;20501;-76
2023/01/28 10:08:25;;;;;;;11.07;7.55;;;;;;;2.22;41.84;102657.69;5066226;28;20503;-77
2023/01/28 10:11:02;;;;;;;10.15;8.07;;;;;;;2.21;42.25;102659.50;5059763;28;20040;-77
2023/01/28 10:13:43;;;;;;;10.88;8.13;;;;;;;2.22;41.85;102646.91;5049972;28;20047;-77
2023/01/28 10:16:24;;;;;;;10.18;7.43;;;;;;;2.23;41.85;102656.78;5055265;28;20542;-77
2023/01/28 10:18:56;;;;;;;11.43;8.95;;;;;;;2.17;41.63;102657.78;5066130;28;20062;-77
2023/01/28 10:21:33;;;;;;;14.18;9.75;;;;;;;2.14;40.78;102646.19;5047466;28;20053;-77
2023/01/28 10:24:06;;;;;;;14.45;9.80;;;;;;;2.13;42.01;102657.91;5068054;28;20418;-77
2023/01/28 10:26:44;;;;;;;11.63;9.48;;;;;;;2.11;41.26;102652.53;5050247;28;20501;-78
2023/01/28 10:29:16;;;;;;;11.68;8.82;;;;;;;2.13;42.05;102660.63;5032689;28;20603;-70
2023/01/28 10:31:52;;;;;;;9.85;7.35;;;;;;;2.06;41.89;102648.19;5053673;28;20067;-69
2023/01/28 10:34:20;;;;;;;13.73;8.50;;;;;;;2.11;42.43;102640.84;5065530;28;20477;-69
2023/01/28 10:36:51;;;;;;;12.63;8.80;;;;;;;2.14;42.27;102644.38;5060876;28;20033;-70
2023/01/28 10:39:21;;;;;;;12.77;9.15;;;;;;;2.17;42.72;102643.41;5065793;28;20139;-70
2023/01/28 10:41:49;;;;;;;12.93;8.45;;;;;;;2.18;42.95;102637.06;5056517;28;20052;-70
2023/01/28 10:44:32;;;;;;;11.48;8.43;;;;;;;2.23;42.14;102645.97;5060768;28;20046;-70
2023/01/28 10:47:04;;;;;;;12.88;8.50;;;;;;;2.25;42.59;102642.28;5057105;28;20055;-71
2023/01/28 10:49:41;;;;;;;13.75;9.65;;;;;;;2.28;41.59;102653.94;5054490;28;20136;-70
2023/01/28 10:52:15;;;;;;;14.80;10.65;;;;;;;2.26;41.43;102641.38;5053680;28;20553;-71
2023/01/28 10:54:43;;;;;;;13.73;10.40;;;;;;;2.24;42.49;102643.25;5064606;28;20055;-70
2023/01/28 10:57:15;;;;;;;14.88;11.32;;;;;;;2.24;41.66;102651.34;5065919;28;20033;-69
2023/01/28 10:59:43;;;;;;;12.98;10.40;;;;;;;2.25;41.96;102652.19;5064608;28;20044;-71
2023/01/28 11:02:30;;;;;;;14.88;10.73;;;;;;;2.24;40.57;102651.34;5062985;28;20036;-70
2023/01/28 11:05:06;;;;;;;14.32;10.00;;;;;;;2.24;41.06;102651.34;5055596;28;20049;-74
2023/01/28 11:07:35;;;;;;;12.80;9.15;;;;;;;2.23;41.90;102657.66;5054363;28;20065;-69
2023/01/28 11:10:03;;;;;;;13.88;10.50;;;;;;;2.20;41.94;102667.66;5061768;28;20520;-69
2023/01/28 11:12:31;;;;;;;13.48;9.18;;;;;;;2.20;41.87;102651.44;5056775;28;20396;-74
2023/01/28 11:15:00;;;;;;;11.93;8.85;;;;;;;2.22;41.84;102652.28;5059764;28;20780;-73
2023/01/28 11:17:31;;;;;;;13.07;9.32;;;;;;;2.22;41.95;102661.28;5055526;28;20083;-72
2023/01/28 11:20:09;;;;;;;12.75;8.80;;;;;;;2.22;41.91;102672.09;5064217;28;20048;-72
2023/01/28 11:22:41;;;;;;;15.13;9.75;;;;;;;2.24;41.97;102677.47;5062071;28;20128;-72
2023/01/28 11:25:18;;;;;;;13.55;9.77;;;;;;;2.26;41.83;102667.50;5059685;28;20098;-71
2023/01/28 11:27:48;;;;;;;13.80;9.50;;;;;;;2.28;42.25;102668.34;5055297;28;20041;-72
2023/01/28 11:30:23;;;;;;;13.32;9.60;;;;;;;2.33;41.47;102668.25;5056923;28;20063;-72
2023/01/28 11:32:59;;;;;;;13.75;9.63;;;;;;;2.35;41.60;102664.56;5056804;28;20511;-72
2023/01/28 11:35:29;;;;;;;13.45;9.65;;;;;;;2.37;42.47;102669.94;5055066;28;20045;-72
2023/01/28 11:38:00;;;;;;;13.95;9.85;;;;;;;2.39;42.27;102666.28;5051828;28;20075;-71
2023/01/28 11:40:28;;;;;;;13.23;10.15;;;;;;;2.41;42.40;102652.75;5055959;28;20044;-72
2023/01/28 11:42:58;;;;;;;13.98;10.07;;;;;;;2.44;42.52;102663.44;5061215;28;20037;-72
2023/01/28 11:45:38;;;;;;;13.25;10.55;;;;;;;2.48;41.47;102667.88;5058868;28;20050;-71
2023/01/28 11:48:21;;;;;;;13.20;9.98;;;;;;;2.49;41.50;102656.13;5061311;28;20801;-71
2023/01/28 11:50:55;;;;;;;;;;;;;;;2.25;42.11;102652.19;5056104;28;20127;-72
2023/01/28 11:54:05;;;;;;;12.43;9.02;;;;;;;2.43;40.87;102648.16;5062503;28;20042;-72
2023/01/28 11:57:01;;;;;;;13.30;9.13;;;;;;;2.45;41.02;102644.50;5047722;28;20071;-71
2023/01/28 11:59:54;;;;;;;13.73;10.07;;;;;;;2.49;41.21;102648.03;5059625;28;20063;-71
2023/01/28 12:02:38;;;;;;;14.55;10.90;;;;;;;2.44;40.80;102639.13;5063308;28;20075;-71
2023/01/28 12:05:19;;;;;;;14.57;10.52;;;;;;;2.44;40.80;102639.13;5058960;28;20047;-71
2023/01/28 12:07:54;;;;;;;14.93;10.88;;;;;;;2.43;41.46;102631.94;5060993;28;20086;-73
2023/01/28 12:10:31;;;;;;;13.50;10.45;;;;;;;2.44;41.83;102639.13;5053924;28;20544;-72
2023/01/28 12:13:20;;;;;;;13.73;10.25;;;;;;;2.45;40.95;102644.50;5056345;28;20061;-69
2023/01/28 12:16:18;;;;;;;14.48;10.75;;;;;;;2.43;40.49;102646.34;5057245;28;20076;-71
2023/01/28 12:19:11;;;;;;;15.38;11.45;;;;;;;2.41;40.52;102636.53;5045017;28;20512;-70
2023/01/28 12:21:53;;;;;;;16.70;10.65;;;;;;;2.40;40.80;102643.75;5058302;28;20045;-73
2023/01/28 12:24:36;;;;;;;15.10;10.25;;;;;;;2.42;40.70;102640.97;5062648;28;20056;-71
2023/01/28 12:27:10;;;;;;;;;;;;;;;2.15;40.85;102634.47;5062628;28;20059;-72